sensor_id;sensor_type;location;lat;lon;timestamp;P1;durP1;ratioP1;P2;durP2;ratioP2
44026;SDS011;29696;55.698;37.460;2022-09-09T00:00:13;3.33;;;2.23;;
44026;SDS011;29696;55.698;37.460;2022-09-09T00:02:44;2.53;;;2.00;;
44026;SDS011;29696;55.698;37.460;2022-09-09T00:05:19;3.95;;;2.35;;
44026;SDS011;29696;55.698;37.460;2022-09-09T00:07:55;2.13;;;1.90;;
44026;SDS011;29696;55.698;37.460;2022-09-09T00:13:31;2.20;;;1.60;;
44026;SDS011;29696;55.698;37.460;2022-09-09T00:16:15;3.70;;;2.58;;
44026;SDS011;29696;55.698;37.460;2022-09-09T00:24:46;7.80;;;1.85;;
44026;SDS011;29696;55.698;37.460;2022-09-09T00:30:22;2.43;;;2.00;;
44026;SDS011;29696;55.698;37.460;2022-09-09T00:32:53;3.70;;;2.50;;
44026;SDS011;29696;55.698;37.460;2022-09-09T00:35:25;4.33;;;2.63;;
44026;SDS011;29696;55.698;37.460;2022-09-09T00:37:56;4.70;;;2.53;;
44026;SDS011;29696;55.698;37.460;2022-09-09T00:40:35;2.97;;;2.53;;
44026;SDS011;29696;55.698;37.460;2022-09-09T00:49:30;3.50;;;3.20;;
44026;SDS011;29696;55.698;37.460;2022-09-09T00:52:23;4.35;;;2.40;;
44026;SDS011;29696;55.698;37.460;2022-09-09T00:58:34;3.10;;;2.40;;
44026;SDS011;29696;55.698;37.460;2022-09-09T01:01:10;9.17;;;3.43;;
44026;SDS011;29696;55.698;37.460;2022-09-09T01:06:35;2.90;;;2.60;;
44026;SDS011;29696;55.698;37.460;2022-09-09T01:09:07;3.07;;;2.63;;
44026;SDS011;29696;55.698;37.460;2022-09-09T01:15:12;3.03;;;2.37;;
44026;SDS011;29696;55.698;37.460;2022-09-09T01:17:50;4.53;;;2.77;;
44026;SDS011;29696;55.698;37.460;2022-09-09T01:20:47;2.47;;;2.07;;
44026;SDS011;29696;55.698;37.460;2022-09-09T01:27:59;3.43;;;2.67;;
44026;SDS011;29696;55.698;37.460;2022-09-09T01:30:31;3.03;;;2.30;;
44026;SDS011;29696;55.698;37.460;2022-09-09T01:33:00;4.23;;;2.97;;
44026;SDS011;29696;55.698;37.460;2022-09-09T01:38:32;3.73;;;2.90;;
44026;SDS011;29696;55.698;37.460;2022-09-09T01:41:00;3.03;;;2.57;;
44026;SDS011;29696;55.698;37.460;2022-09-09T01:43:36;3.13;;;2.50;;
44026;SDS011;29696;55.698;37.460;2022-09-09T01:46:03;3.13;;;2.77;;
44026;SDS011;29696;55.698;37.460;2022-09-09T01:48:30;4.40;;;2.77;;
44026;SDS011;29696;55.698;37.460;2022-09-09T01:51:08;4.97;;;2.80;;
44026;SDS011;29696;55.698;37.460;2022-09-09T01:53:36;3.90;;;2.67;;
44026;SDS011;29696;55.698;37.460;2022-09-09T02:06:30;6.07;;;2.87;;
44026;SDS011;29696;55.698;37.460;2022-09-09T02:09:10;3.23;;;2.50;;
44026;SDS011;29696;55.698;37.460;2022-09-09T02:11:40;5.37;;;2.87;;
44026;SDS011;29696;55.698;37.460;2022-09-09T02:14:22;6.30;;;3.43;;
44026;SDS011;29696;55.698;37.460;2022-09-09T02:16:55;3.00;;;2.53;;
44026;SDS011;29696;55.698;37.460;2022-09-09T02:19:37;4.90;;;3.17;;
44026;SDS011;29696;55.698;37.460;2022-09-09T02:22:24;3.07;;;2.47;;
44026;SDS011;29696;55.698;37.460;2022-09-09T02:24:56;6.10;;;3.23;;
44026;SDS011;29696;55.698;37.460;2022-09-09T02:27:26;3.27;;;2.90;;
44026;SDS011;29696;55.698;37.460;2022-09-09T02:29:53;2.67;;;2.23;;
44026;SDS011;29696;55.698;37.460;2022-09-09T02:32:34;4.97;;;3.13;;
44026;SDS011;29696;55.698;37.460;2022-09-09T02:35:08;4.10;;;2.57;;
44026;SDS011;29696;55.698;37.460;2022-09-09T02:37:38;4.17;;;3.17;;
44026;SDS011;29696;55.698;37.460;2022-09-09T02:40:07;4.40;;;2.90;;
44026;SDS011;29696;55.698;37.460;2022-09-09T02:42:43;3.20;;;2.60;;
44026;SDS011;29696;55.698;37.460;2022-09-09T02:45:12;5.43;;;2.53;;
44026;SDS011;29696;55.698;37.460;2022-09-09T02:47:47;4.03;;;2.17;;
44026;SDS011;29696;55.698;37.460;2022-09-09T02:51:00;3.73;;;2.57;;
44026;SDS011;29696;55.698;37.460;2022-09-09T02:53:41;3.77;;;3.40;;
44026;SDS011;29696;55.698;37.460;2022-09-09T02:56:16;4.27;;;3.10;;
44026;SDS011;29696;55.698;37.460;2022-09-09T02:58:48;4.07;;;2.73;;
44026;SDS011;29696;55.698;37.460;2022-09-09T03:01:15;7.17;;;4.10;;
44026;SDS011;29696;55.698;37.460;2022-09-09T03:03:42;4.67;;;2.77;;
44026;SDS011;29696;55.698;37.460;2022-09-09T03:06:14;5.53;;;3.90;;
44026;SDS011;29696;55.698;37.460;2022-09-09T03:08:43;7.87;;;3.97;;
44026;SDS011;29696;55.698;37.460;2022-09-09T03:11:10;15.03;;;3.23;;
44026;SDS011;29696;55.698;37.460;2022-09-09T03:13:37;7.60;;;3.83;;
44026;SDS011;29696;55.698;37.460;2022-09-09T03:16:04;5.97;;;3.20;;
44026;SDS011;29696;55.698;37.460;2022-09-09T03:18:35;3.93;;;2.27;;
44026;SDS011;29696;55.698;37.460;2022-09-09T03:21:02;2.80;;;2.30;;
44026;SDS011;29696;55.698;37.460;2022-09-09T03:23:29;3.47;;;2.50;;
44026;SDS011;29696;55.698;37.460;2022-09-09T03:25:57;10.20;;;2.30;;
44026;SDS011;29696;55.698;37.460;2022-09-09T03:28:34;3.50;;;2.33;;
44026;SDS011;29696;55.698;37.460;2022-09-09T03:31:02;3.70;;;2.50;;
44026;SDS011;29696;55.698;37.460;2022-09-09T03:33:34;4.53;;;3.67;;
44026;SDS011;29696;55.698;37.460;2022-09-09T03:36:03;4.93;;;2.40;;
44026;SDS011;29696;55.698;37.460;2022-09-09T03:38:30;6.77;;;4.13;;
44026;SDS011;29696;55.698;37.460;2022-09-09T03:40:58;3.87;;;2.80;;
44026;SDS011;29696;55.698;37.460;2022-09-09T03:43:25;7.30;;;3.27;;
44026;SDS011;29696;55.698;37.460;2022-09-09T03:45:53;3.03;;;2.50;;
44026;SDS011;29696;55.698;37.460;2022-09-09T03:48:24;11.10;;;7.30;;
44026;SDS011;29696;55.698;37.460;2022-09-09T03:50:52;4.73;;;2.93;;
44026;SDS011;29696;55.698;37.460;2022-09-09T03:53:21;3.33;;;2.67;;
44026;SDS011;29696;55.698;37.460;2022-09-09T03:55:49;4.33;;;2.50;;
44026;SDS011;29696;55.698;37.460;2022-09-09T03:58:22;2.37;;;2.10;;
44026;SDS011;29696;55.698;37.460;2022-09-09T04:03:44;3.30;;;2.57;;
44026;SDS011;29696;55.698;37.460;2022-09-09T04:06:14;4.57;;;2.07;;
44026;SDS011;29696;55.698;37.460;2022-09-09T04:08:44;5.23;;;2.33;;
44026;SDS011;29696;55.698;37.460;2022-09-09T04:11:13;3.42;;;2.33;;
44026;SDS011;29696;55.698;37.460;2022-09-09T04:13:41;2.03;;;1.42;;
44026;SDS011;29696;55.698;37.460;2022-09-09T04:16:10;9.60;;;1.83;;
44026;SDS011;29696;55.698;37.460;2022-09-09T04:18:42;2.95;;;1.90;;
44026;SDS011;29696;55.698;37.460;2022-09-09T04:21:09;12.73;;;2.28;;
44026;SDS011;29696;55.698;37.460;2022-09-09T04:23:38;5.43;;;1.70;;
44026;SDS011;29696;55.698;37.460;2022-09-09T04:26:05;2.08;;;1.50;;
44026;SDS011;29696;55.698;37.460;2022-09-09T04:28:33;2.35;;;1.90;;
44026;SDS011;29696;55.698;37.460;2022-09-09T04:31:08;3.25;;;2.50;;
44026;SDS011;29696;55.698;37.460;2022-09-09T04:33:48;6.43;;;1.90;;
44026;SDS011;29696;55.698;37.460;2022-09-09T04:36:16;5.18;;;1.92;;
44026;SDS011;29696;55.698;37.460;2022-09-09T04:38:45;6.00;;;2.03;;
44026;SDS011;29696;55.698;37.460;2022-09-09T04:41:12;10.27;;;2.65;;
44026;SDS011;29696;55.698;37.460;2022-09-09T04:43:42;7.28;;;2.53;;
44026;SDS011;29696;55.698;37.460;2022-09-09T04:46:09;4.22;;;1.88;;
44026;SDS011;29696;55.698;37.460;2022-09-09T04:48:35;4.40;;;1.73;;
44026;SDS011;29696;55.698;37.460;2022-09-09T04:51:04;3.53;;;1.50;;
44026;SDS011;29696;55.698;37.460;2022-09-09T04:53:33;7.40;;;1.85;;
44026;SDS011;29696;55.698;37.460;2022-09-09T04:56:19;2.40;;;1.80;;
44026;SDS011;29696;55.698;37.460;2022-09-09T04:58:50;5.90;;;1.65;;
44026;SDS011;29696;55.698;37.460;2022-09-09T05:01:18;6.25;;;2.30;;
44026;SDS011;29696;55.698;37.460;2022-09-09T05:03:48;6.75;;;2.00;;
44026;SDS011;29696;55.698;37.460;2022-09-09T05:06:19;3.72;;;1.55;;
44026;SDS011;29696;55.698;37.460;2022-09-09T05:08:49;2.85;;;1.50;;
44026;SDS011;29696;55.698;37.460;2022-09-09T05:14:10;4.30;;;1.48;;
44026;SDS011;29696;55.698;37.460;2022-09-09T05:16:38;2.35;;;1.60;;
44026;SDS011;29696;55.698;37.460;2022-09-09T05:19:05;4.18;;;1.67;;
44026;SDS011;29696;55.698;37.460;2022-09-09T05:21:43;4.30;;;1.75;;
44026;SDS011;29696;55.698;37.460;2022-09-09T05:24:09;3.42;;;1.75;;
44026;SDS011;29696;55.698;37.460;2022-09-09T05:26:37;1.70;;;1.60;;
44026;SDS011;29696;55.698;37.460;2022-09-09T05:29:03;2.58;;;1.52;;
44026;SDS011;29696;55.698;37.460;2022-09-09T05:31:30;2.53;;;1.83;;
44026;SDS011;29696;55.698;37.460;2022-09-09T05:33:59;1.23;;;1.13;;
44026;SDS011;29696;55.698;37.460;2022-09-09T05:36:25;3.33;;;1.67;;
44026;SDS011;29696;55.698;37.460;2022-09-09T05:38:55;6.95;;;1.52;;
44026;SDS011;29696;55.698;37.460;2022-09-09T05:41:22;5.57;;;2.00;;
44026;SDS011;29696;55.698;37.460;2022-09-09T05:43:50;2.03;;;1.83;;
44026;SDS011;29696;55.698;37.460;2022-09-09T05:46:18;2.63;;;1.40;;
44026;SDS011;29696;55.698;37.460;2022-09-09T05:48:48;4.95;;;1.80;;
44026;SDS011;29696;55.698;37.460;2022-09-09T05:53:55;3.47;;;2.08;;
44026;SDS011;29696;55.698;37.460;2022-09-09T05:56:26;3.20;;;1.80;;
44026;SDS011;29696;55.698;37.460;2022-09-09T05:58:55;3.08;;;1.92;;
44026;SDS011;29696;55.698;37.460;2022-09-09T06:01:30;3.22;;;1.90;;
44026;SDS011;29696;55.698;37.460;2022-09-09T06:04:00;4.50;;;1.95;;
44026;SDS011;29696;55.698;37.460;2022-09-09T06:06:31;3.85;;;1.85;;
44026;SDS011;29696;55.698;37.460;2022-09-09T06:09:05;10.30;;;1.70;;
44026;SDS011;29696;55.698;37.460;2022-09-09T06:11:36;5.03;;;1.77;;
44026;SDS011;29696;55.698;37.460;2022-09-09T06:14:04;4.72;;;1.88;;
44026;SDS011;29696;55.698;37.460;2022-09-09T06:16:32;3.38;;;2.13;;
44026;SDS011;29696;55.698;37.460;2022-09-09T06:18:59;3.25;;;2.20;;
44026;SDS011;29696;55.698;37.460;2022-09-09T06:21:35;1.55;;;1.45;;
44026;SDS011;29696;55.698;37.460;2022-09-09T06:24:08;2.67;;;1.65;;
44026;SDS011;29696;55.698;37.460;2022-09-09T06:26:36;2.95;;;1.23;;
44026;SDS011;29696;55.698;37.460;2022-09-09T06:29:09;1.75;;;1.30;;
44026;SDS011;29696;55.698;37.460;2022-09-09T06:31:36;2.35;;;1.30;;
44026;SDS011;29696;55.698;37.460;2022-09-09T06:34:09;2.20;;;1.55;;
44026;SDS011;29696;55.698;37.460;2022-09-09T06:36:39;3.30;;;1.63;;
44026;SDS011;29696;55.698;37.460;2022-09-09T06:39:07;4.20;;;1.58;;
44026;SDS011;29696;55.698;37.460;2022-09-09T06:41:36;3.67;;;1.90;;
44026;SDS011;29696;55.698;37.460;2022-09-09T06:44:06;2.90;;;2.28;;
44026;SDS011;29696;55.698;37.460;2022-09-09T06:46:40;5.57;;;1.55;;
44026;SDS011;29696;55.698;37.460;2022-09-09T06:49:08;4.25;;;1.60;;
44026;SDS011;29696;55.698;37.460;2022-09-09T06:51:36;1.48;;;1.30;;
44026;SDS011;29696;55.698;37.460;2022-09-09T06:54:10;2.25;;;1.73;;
44026;SDS011;29696;55.698;37.460;2022-09-09T06:56:39;2.67;;;1.38;;
44026;SDS011;29696;55.698;37.460;2022-09-09T06:59:22;7.75;;;1.60;;
44026;SDS011;29696;55.698;37.460;2022-09-09T07:01:51;5.43;;;2.40;;
44026;SDS011;29696;55.698;37.460;2022-09-09T07:04:19;1.65;;;1.38;;
44026;SDS011;29696;55.698;37.460;2022-09-09T07:06:45;1.85;;;1.00;;
44026;SDS011;29696;55.698;37.460;2022-09-09T07:09:16;5.40;;;1.75;;
44026;SDS011;29696;55.698;37.460;2022-09-09T07:11:50;1.42;;;1.00;;
44026;SDS011;29696;55.698;37.460;2022-09-09T07:14:19;1.95;;;1.10;;
44026;SDS011;29696;55.698;37.460;2022-09-09T07:16:51;2.00;;;1.02;;
44026;SDS011;29696;55.698;37.460;2022-09-09T07:19:18;1.00;;;0.77;;
44026;SDS011;29696;55.698;37.460;2022-09-09T07:21:48;2.30;;;0.90;;
44026;SDS011;29696;55.698;37.460;2022-09-09T07:24:18;2.22;;;1.35;;
44026;SDS011;29696;55.698;37.460;2022-09-09T07:26:44;2.15;;;0.70;;
44026;SDS011;29696;55.698;37.460;2022-09-09T07:29:12;0.70;;;0.70;;
44026;SDS011;29696;55.698;37.460;2022-09-09T07:31:41;1.35;;;0.80;;
44026;SDS011;29696;55.698;37.460;2022-09-09T07:34:12;6.07;;;1.98;;
44026;SDS011;29696;55.698;37.460;2022-09-09T07:36:39;1.42;;;1.05;;
44026;SDS011;29696;55.698;37.460;2022-09-09T07:39:09;3.75;;;1.67;;
44026;SDS011;29696;55.698;37.460;2022-09-09T07:41:45;2.72;;;1.15;;
44026;SDS011;29696;55.698;37.460;2022-09-09T07:44:16;3.67;;;1.02;;
44026;SDS011;29696;55.698;37.460;2022-09-09T07:46:48;1.85;;;0.98;;
44026;SDS011;29696;55.698;37.460;2022-09-09T07:49:18;1.58;;;0.82;;
44026;SDS011;29696;55.698;37.460;2022-09-09T07:51:45;6.65;;;1.10;;
44026;SDS011;29696;55.698;37.460;2022-09-09T07:54:15;1.30;;;0.75;;
44026;SDS011;29696;55.698;37.460;2022-09-09T07:56:47;5.57;;;0.75;;
44026;SDS011;29696;55.698;37.460;2022-09-09T07:59:15;1.17;;;0.90;;
44026;SDS011;29696;55.698;37.460;2022-09-09T08:01:45;1.70;;;1.08;;
44026;SDS011;29696;55.698;37.460;2022-09-09T08:04:18;3.20;;;0.75;;
44026;SDS011;29696;55.698;37.460;2022-09-09T08:06:51;1.48;;;1.15;;
44026;SDS011;29696;55.698;37.460;2022-09-09T08:09:21;2.15;;;0.40;;
44026;SDS011;29696;55.698;37.460;2022-09-09T08:11:52;3.30;;;0.98;;
44026;SDS011;29696;55.698;37.460;2022-09-09T08:14:18;0.80;;;0.75;;
44026;SDS011;29696;55.698;37.460;2022-09-09T08:16:46;0.45;;;0.45;;
44026;SDS011;29696;55.698;37.460;2022-09-09T08:19:17;1.02;;;0.60;;
44026;SDS011;29696;55.698;37.460;2022-09-09T08:21:45;1.70;;;0.68;;
44026;SDS011;29696;55.698;37.460;2022-09-09T08:24:12;3.17;;;0.85;;
44026;SDS011;29696;55.698;37.460;2022-09-09T08:26:47;1.48;;;0.88;;
44026;SDS011;29696;55.698;37.460;2022-09-09T08:29:22;1.98;;;0.80;;
44026;SDS011;29696;55.698;37.460;2022-09-09T08:31:50;4.15;;;1.35;;
44026;SDS011;29696;55.698;37.460;2022-09-09T08:34:21;0.68;;;0.63;;
44026;SDS011;29696;55.698;37.460;2022-09-09T08:36:49;3.67;;;0.93;;
44026;SDS011;29696;55.698;37.460;2022-09-09T08:39:20;4.80;;;1.20;;
44026;SDS011;29696;55.698;37.460;2022-09-09T08:48:44;4.72;;;1.27;;
44026;SDS011;29696;55.698;37.460;2022-09-09T08:51:42;5.57;;;1.63;;
44026;SDS011;29696;55.698;37.460;2022-09-09T08:54:09;3.33;;;1.10;;
44026;SDS011;29696;55.698;37.460;2022-09-09T08:56:36;4.63;;;1.30;;
44026;SDS011;29696;55.698;37.460;2022-09-09T08:59:02;2.35;;;1.10;;
44026;SDS011;29696;55.698;37.460;2022-09-09T09:18:27;0.82;;;0.80;;
44026;SDS011;29696;55.698;37.460;2022-09-09T09:20:58;2.47;;;1.10;;
44026;SDS011;29696;55.698;37.460;2022-09-09T09:24:18;1.08;;;0.82;;
44026;SDS011;29696;55.698;37.460;2022-09-09T09:26:47;3.10;;;1.15;;
44026;SDS011;29696;55.698;37.460;2022-09-09T09:29:14;2.17;;;0.90;;
44026;SDS011;29696;55.698;37.460;2022-09-09T09:31:48;2.25;;;1.13;;
44026;SDS011;29696;55.698;37.460;2022-09-09T09:34:22;0.85;;;0.80;;
44026;SDS011;29696;55.698;37.460;2022-09-09T09:36:56;1.48;;;1.05;;
44026;SDS011;29696;55.698;37.460;2022-09-09T09:39:28;1.08;;;1.00;;
44026;SDS011;29696;55.698;37.460;2022-09-09T09:41:59;1.00;;;0.90;;
44026;SDS011;29696;55.698;37.460;2022-09-09T09:44:46;1.20;;;0.63;;
44026;SDS011;29696;55.698;37.460;2022-09-09T09:47:18;2.77;;;1.33;;
44026;SDS011;29696;55.698;37.460;2022-09-09T09:50:00;1.37;;;1.13;;
44026;SDS011;29696;55.698;37.460;2022-09-09T09:52:33;2.97;;;1.27;;
44026;SDS011;29696;55.698;37.460;2022-09-09T09:55:03;1.00;;;0.73;;
44026;SDS011;29696;55.698;37.460;2022-09-09T09:57:46;1.33;;;1.17;;
44026;SDS011;29696;55.698;37.460;2022-09-09T10:00:17;1.20;;;1.10;;
44026;SDS011;29696;55.698;37.460;2022-09-09T10:02:53;3.33;;;0.97;;
44026;SDS011;29696;55.698;37.460;2022-09-09T10:05:27;1.40;;;0.93;;
44026;SDS011;29696;55.698;37.460;2022-09-09T10:17:23;1.33;;;1.20;;
44026;SDS011;29696;55.698;37.460;2022-09-09T10:20:34;1.65;;;1.15;;
44026;SDS011;29696;55.698;37.460;2022-09-09T10:23:35;2.30;;;1.20;;
44026;SDS011;29696;55.698;37.460;2022-09-09T10:32:45;1.73;;;0.90;;
44026;SDS011;29696;55.698;37.460;2022-09-09T10:47:05;3.90;;;1.30;;
44026;SDS011;29696;55.698;37.460;2022-09-09T10:56:18;6.77;;;3.47;;
44026;SDS011;29696;55.698;37.460;2022-09-09T10:58:54;4.80;;;3.45;;
44026;SDS011;29696;55.698;37.460;2022-09-09T11:01:44;1.88;;;1.10;;
44026;SDS011;29696;55.698;37.460;2022-09-09T11:04:17;1.20;;;0.83;;
44026;SDS011;29696;55.698;37.460;2022-09-09T11:06:53;2.97;;;1.20;;
44026;SDS011;29696;55.698;37.460;2022-09-09T11:09:22;2.47;;;2.15;;
44026;SDS011;29696;55.698;37.460;2022-09-09T11:11:55;4.10;;;2.70;;
44026;SDS011;29696;55.698;37.460;2022-09-09T11:14:31;2.20;;;2.00;;
44026;SDS011;29696;55.698;37.460;2022-09-09T11:17:30;1.98;;;1.25;;
44026;SDS011;29696;55.698;37.460;2022-09-09T11:20:05;1.25;;;1.15;;
44026;SDS011;29696;55.698;37.460;2022-09-09T11:22:52;1.67;;;0.97;;
44026;SDS011;29696;55.698;37.460;2022-09-09T11:25:54;2.97;;;1.50;;
44026;SDS011;29696;55.698;37.460;2022-09-09T11:28:28;1.00;;;0.77;;
44026;SDS011;29696;55.698;37.460;2022-09-09T11:38:12;2.00;;;0.70;;
44026;SDS011;29696;55.698;37.460;2022-09-09T11:40:55;2.10;;;1.20;;
44026;SDS011;29696;55.698;37.460;2022-09-09T11:43:33;4.40;;;1.13;;
44026;SDS011;29696;55.698;37.460;2022-09-09T11:46:07;3.63;;;1.00;;
44026;SDS011;29696;55.698;37.460;2022-09-09T11:48:36;1.40;;;0.90;;
44026;SDS011;29696;55.698;37.460;2022-09-09T11:51:26;1.67;;;1.13;;
44026;SDS011;29696;55.698;37.460;2022-09-09T11:53:59;1.57;;;1.10;;
44026;SDS011;29696;55.698;37.460;2022-09-09T11:56:43;0.97;;;0.97;;
44026;SDS011;29696;55.698;37.460;2022-09-09T11:59:21;1.23;;;0.90;;
44026;SDS011;29696;55.698;37.460;2022-09-09T12:02:12;0.77;;;0.77;;
44026;SDS011;29696;55.698;37.460;2022-09-09T12:04:40;1.83;;;0.83;;
44026;SDS011;29696;55.698;37.460;2022-09-09T12:07:28;1.30;;;0.83;;
44026;SDS011;29696;55.698;37.460;2022-09-09T12:13:17;2.17;;;1.47;;
44026;SDS011;29696;55.698;37.460;2022-09-09T12:16:04;3.20;;;1.30;;
44026;SDS011;29696;55.698;37.460;2022-09-09T12:18:32;1.93;;;0.70;;
44026;SDS011;29696;55.698;37.460;2022-09-09T12:21:06;1.43;;;1.00;;
44026;SDS011;29696;55.698;37.460;2022-09-09T12:27:05;1.60;;;1.17;;
44026;SDS011;29696;55.698;37.460;2022-09-09T12:29:54;1.23;;;1.10;;
44026;SDS011;29696;55.698;37.460;2022-09-09T12:32:47;2.70;;;1.50;;
44026;SDS011;29696;55.698;37.460;2022-09-09T12:35:19;2.10;;;1.33;;
44026;SDS011;29696;55.698;37.460;2022-09-09T12:40:53;0.90;;;0.87;;
44026;SDS011;29696;55.698;37.460;2022-09-09T12:43:22;2.43;;;1.40;;
44026;SDS011;29696;55.698;37.460;2022-09-09T12:45:51;4.00;;;1.47;;
44026;SDS011;29696;55.698;37.460;2022-09-09T12:48:49;1.07;;;0.97;;
44026;SDS011;29696;55.698;37.460;2022-09-09T12:51:18;0.97;;;0.87;;
44026;SDS011;29696;55.698;37.460;2022-09-09T12:53:51;2.03;;;1.38;;
44026;SDS011;29696;55.698;37.460;2022-09-09T12:56:18;1.70;;;1.10;;
44026;SDS011;29696;55.698;37.460;2022-09-09T12:58:47;1.20;;;0.80;;
44026;SDS011;29696;55.698;37.460;2022-09-09T13:01:21;3.13;;;1.07;;
44026;SDS011;29696;55.698;37.460;2022-09-09T13:03:49;2.93;;;2.10;;
44026;SDS011;29696;55.698;37.460;2022-09-09T13:06:19;4.57;;;1.10;;
44026;SDS011;29696;55.698;37.460;2022-09-09T13:08:49;3.83;;;1.27;;
44026;SDS011;29696;55.698;37.460;2022-09-09T13:11:23;4.87;;;1.20;;
44026;SDS011;29696;55.698;37.460;2022-09-09T13:14:01;4.70;;;1.23;;
44026;SDS011;29696;55.698;37.460;2022-09-09T13:16:29;1.50;;;0.90;;
44026;SDS011;29696;55.698;37.460;2022-09-09T13:18:58;0.77;;;0.77;;
44026;SDS011;29696;55.698;37.460;2022-09-09T13:21:31;1.30;;;1.03;;
44026;SDS011;29696;55.698;37.460;2022-09-09T13:23:58;1.77;;;0.90;;
44026;SDS011;29696;55.698;37.460;2022-09-09T13:26:29;1.60;;;1.10;;
44026;SDS011;29696;55.698;37.460;2022-09-09T13:29:07;2.00;;;1.00;;
44026;SDS011;29696;55.698;37.460;2022-09-09T13:31:42;5.80;;;1.63;;
44026;SDS011;29696;55.698;37.460;2022-09-09T13:34:25;1.20;;;0.80;;
44026;SDS011;29696;55.698;37.460;2022-09-09T13:36:59;1.00;;;0.83;;
44026;SDS011;29696;55.698;37.460;2022-09-09T13:39:28;1.97;;;1.50;;
44026;SDS011;29696;55.698;37.460;2022-09-09T13:41:55;7.63;;;1.10;;
44026;SDS011;29696;55.698;37.460;2022-09-09T13:44:31;1.43;;;1.00;;
44026;SDS011;29696;55.698;37.460;2022-09-09T13:47:19;9.33;;;1.50;;
44026;SDS011;29696;55.698;37.460;2022-09-09T13:49:49;2.20;;;1.30;;
44026;SDS011;29696;55.698;37.460;2022-09-09T13:52:16;1.87;;;1.30;;
44026;SDS011;29696;55.698;37.460;2022-09-09T13:54:51;1.30;;;0.73;;
44026;SDS011;29696;55.698;37.460;2022-09-09T13:57:19;3.50;;;1.00;;
44026;SDS011;29696;55.698;37.460;2022-09-09T13:59:47;2.53;;;1.87;;
44026;SDS011;29696;55.698;37.460;2022-09-09T14:02:14;4.07;;;0.97;;
44026;SDS011;29696;55.698;37.460;2022-09-09T14:04:42;1.93;;;1.30;;
44026;SDS011;29696;55.698;37.460;2022-09-09T14:07:11;1.77;;;1.40;;
44026;SDS011;29696;55.698;37.460;2022-09-09T14:09:39;4.30;;;1.50;;
44026;SDS011;29696;55.698;37.460;2022-09-09T14:12:12;3.50;;;1.70;;
44026;SDS011;29696;55.698;37.460;2022-09-09T14:14:39;2.77;;;1.53;;
44026;SDS011;29696;55.698;37.460;2022-09-09T14:17:08;6.30;;;1.80;;
44026;SDS011;29696;55.698;37.460;2022-09-09T14:19:34;2.27;;;1.20;;
44026;SDS011;29696;55.698;37.460;2022-09-09T14:22:02;5.33;;;2.27;;
44026;SDS011;29696;55.698;37.460;2022-09-09T14:24:29;2.67;;;1.37;;
44026;SDS011;29696;55.698;37.460;2022-09-09T14:26:55;4.90;;;1.50;;
44026;SDS011;29696;55.698;37.460;2022-09-09T14:29:22;1.23;;;1.07;;
44026;SDS011;29696;55.698;37.460;2022-09-09T14:31:48;1.37;;;1.27;;
44026;SDS011;29696;55.698;37.460;2022-09-09T14:34:14;3.20;;;1.60;;
44026;SDS011;29696;55.698;37.460;2022-09-09T14:36:41;3.33;;;1.80;;
44026;SDS011;29696;55.698;37.460;2022-09-09T14:39:07;3.70;;;2.30;;
44026;SDS011;29696;55.698;37.460;2022-09-09T14:41:34;7.63;;;1.63;;
44026;SDS011;29696;55.698;37.460;2022-09-09T14:44:00;4.70;;;2.30;;
44026;SDS011;29696;55.698;37.460;2022-09-09T14:46:26;3.77;;;2.47;;
44026;SDS011;29696;55.698;37.460;2022-09-09T14:48:53;4.10;;;3.60;;
44026;SDS011;29696;55.698;37.460;2022-09-09T14:51:22;4.00;;;2.63;;
44026;SDS011;29696;55.698;37.460;2022-09-09T14:53:51;5.13;;;3.80;;
44026;SDS011;29696;55.698;37.460;2022-09-09T14:56:22;6.97;;;3.33;;
44026;SDS011;29696;55.698;37.460;2022-09-09T14:58:52;4.80;;;3.87;;
44026;SDS011;29696;55.698;37.460;2022-09-09T15:01:19;4.20;;;2.77;;
44026;SDS011;29696;55.698;37.460;2022-09-09T15:03:50;5.53;;;2.83;;
44026;SDS011;29696;55.698;37.460;2022-09-09T15:06:18;3.60;;;3.10;;
44026;SDS011;29696;55.698;37.460;2022-09-09T15:08:45;7.03;;;3.03;;
44026;SDS011;29696;55.698;37.460;2022-09-09T15:11:12;4.63;;;2.53;;
44026;SDS011;29696;55.698;37.460;2022-09-09T15:13:40;3.13;;;2.27;;
44026;SDS011;29696;55.698;37.460;2022-09-09T15:16:09;5.23;;;2.73;;
44026;SDS011;29696;55.698;37.460;2022-09-09T15:18:40;3.50;;;2.23;;
44026;SDS011;29696;55.698;37.460;2022-09-09T15:21:09;7.73;;;2.93;;
44026;SDS011;29696;55.698;37.460;2022-09-09T15:23:36;10.33;;;2.60;;
44026;SDS011;29696;55.698;37.460;2022-09-09T15:26:03;5.27;;;2.83;;
44026;SDS011;29696;55.698;37.460;2022-09-09T15:28:31;3.43;;;1.90;;
44026;SDS011;29696;55.698;37.460;2022-09-09T15:31:07;2.93;;;1.70;;
44026;SDS011;29696;55.698;37.460;2022-09-09T15:33:37;9.33;;;1.77;;
44026;SDS011;29696;55.698;37.460;2022-09-09T15:36:13;3.33;;;2.03;;
44026;SDS011;29696;55.698;37.460;2022-09-09T15:39:00;9.10;;;2.60;;
44026;SDS011;29696;55.698;37.460;2022-09-09T15:41:28;1.97;;;1.57;;
44026;SDS011;29696;55.698;37.460;2022-09-09T15:43:55;4.37;;;2.10;;
44026;SDS011;29696;55.698;37.460;2022-09-09T15:46:27;4.10;;;2.17;;
44026;SDS011;29696;55.698;37.460;2022-09-09T15:49:18;3.43;;;2.03;;
44026;SDS011;29696;55.698;37.460;2022-09-09T15:51:54;6.87;;;1.67;;
44026;SDS011;29696;55.698;37.460;2022-09-09T15:54:23;8.57;;;2.17;;
44026;SDS011;29696;55.698;37.460;2022-09-09T15:56:57;5.97;;;2.43;;
44026;SDS011;29696;55.698;37.460;2022-09-09T15:59:26;4.80;;;2.17;;
44026;SDS011;29696;55.698;37.460;2022-09-09T16:01:53;3.93;;;2.07;;
44026;SDS011;29696;55.698;37.460;2022-09-09T16:04:22;5.53;;;1.70;;
44026;SDS011;29696;55.698;37.460;2022-09-09T16:06:50;7.57;;;2.00;;
44026;SDS011;29696;55.698;37.460;2022-09-09T16:09:20;5.43;;;2.03;;
44026;SDS011;29696;55.698;37.460;2022-09-09T16:11:47;10.90;;;5.07;;
44026;SDS011;29696;55.698;37.460;2022-09-09T16:14:14;3.50;;;2.27;;
44026;SDS011;29696;55.698;37.460;2022-09-09T16:16:41;15.53;;;3.97;;
44026;SDS011;29696;55.698;37.460;2022-09-09T16:19:09;9.90;;;2.67;;
44026;SDS011;29696;55.698;37.460;2022-09-09T16:21:40;5.97;;;2.13;;
44026;SDS011;29696;55.698;37.460;2022-09-09T16:24:12;5.13;;;2.20;;
44026;SDS011;29696;55.698;37.460;2022-09-09T16:26:44;7.90;;;3.50;;
44026;SDS011;29696;55.698;37.460;2022-09-09T16:29:13;15.03;;;3.60;;
44026;SDS011;29696;55.698;37.460;2022-09-09T16:31:40;7.33;;;4.33;;
44026;SDS011;29696;55.698;37.460;2022-09-09T16:34:07;9.10;;;3.37;;
44026;SDS011;29696;55.698;37.460;2022-09-09T16:36:36;6.43;;;3.07;;
44026;SDS011;29696;55.698;37.460;2022-09-09T16:39:11;4.27;;;2.60;;
44026;SDS011;29696;55.698;37.460;2022-09-09T16:41:39;11.33;;;3.50;;
44026;SDS011;29696;55.698;37.460;2022-09-09T16:44:08;10.70;;;3.80;;
44026;SDS011;29696;55.698;37.460;2022-09-09T16:46:36;7.87;;;2.97;;
44026;SDS011;29696;55.698;37.460;2022-09-09T16:49:05;12.73;;;3.70;;
44026;SDS011;29696;55.698;37.460;2022-09-09T16:51:34;8.47;;;3.63;;
44026;SDS011;29696;55.698;37.460;2022-09-09T16:54:04;10.63;;;4.03;;
44026;SDS011;29696;55.698;37.460;2022-09-09T16:56:33;12.77;;;5.13;;
44026;SDS011;29696;55.698;37.460;2022-09-09T16:59:05;10.57;;;3.43;;
44026;SDS011;29696;55.698;37.460;2022-09-09T17:01:35;8.40;;;3.83;;
44026;SDS011;29696;55.698;37.460;2022-09-09T17:04:04;7.50;;;4.73;;
44026;SDS011;29696;55.698;37.460;2022-09-09T17:06:33;7.77;;;3.60;;
44026;SDS011;29696;55.698;37.460;2022-09-09T17:09:05;5.43;;;3.57;;
44026;SDS011;29696;55.698;37.460;2022-09-09T17:11:33;8.47;;;4.23;;